PWSweather.com
Personal Weather Stations
Station Observations
QVALLEY1
Quail Valley, Overland Park, KS 66210

Quail ValleyOverland Park, KS 66210

Lat: 38.926, Lon: -94.684

Elevation: 1010

Station Type: Ambient Weather/WS 1400 IP

Latest ConditionsUpdated 7:15:10 PM CDT Monday, Jul 22, 2019
Currently Today's Max Today's Min Today's Average
Temperature 77.5°F25.3°C 79.7°F26.5°C 66.9°F19.4°C 74.1°F23.4°C
Dew Point 57.5°F14.2°C 70.0°F21.1°C 54.2°F12.3°C 62.8°F17.1°C
Winds 11.2 mph N18.0 kmh N 18.3 mph -29.5 kmh - - 6.5 mph 10.5 kmh
Wind Gusts 17.9 mph28.8 kmh 24.2 mph38.9 kmh - -
Humidity 50% 95% 42% 71%
Pressure 30.15 in1021.0 mb 30.17 in1021.7 mb 30.03 in1016.9 mb -
Precipitation - 0.01 in0.3 mm - -
Hour Temp Dew Point Humidity Winds Wind Gusts Pressure Precip Precip Rate Daily Precip Total
07:15 PM 77.5°F25.3°C 57.5°F14.2°C 50% 11.2 mph N18.0 kmh N 17.9 mph28.8 kmh 30.15 in1021.0 mb 0.00 in0.0 mm 0.00 in0.0 mm 0.01 in0.3 mm
07:10 PM 77.5°F25.3°C 57.6°F14.2°C 50% 9.0 mph NNE14.5 kmh NNE 9.0 mph14.5 kmh 30.15 in1021.0 mb 0.00 in0.0 mm 0.00 in0.0 mm 0.01 in0.3 mm
07:05 PM 77.7°F25.4°C 57.6°F14.2°C 50% 7.2 mph NNE11.6 kmh NNE 9.0 mph14.5 kmh 30.15 in1021.0 mb 0.00 in0.0 mm 0.00 in0.0 mm 0.01 in0.3 mm
07:00 PM 77.7°F25.4°C 57.6°F14.2°C 50% 13.4 mph NNE21.6 kmh NNE 15.0 mph24.1 kmh 30.15 in1021.0 mb 0.00 in0.0 mm 0.00 in0.0 mm 0.01 in0.3 mm
06:55 PM 77.7°F25.4°C 57.5°F14.2°C 50% 9.6 mph NNE15.4 kmh NNE 12.1 mph19.5 kmh 30.15 in1021.0 mb 0.00 in0.0 mm 0.00 in0.0 mm 0.01 in0.3 mm
06:50 PM 77.7°F25.4°C 57.1°F13.9°C 49% 10.3 mph NNE16.6 kmh NNE 12.1 mph19.5 kmh 30.15 in1021.0 mb 0.00 in0.0 mm 0.00 in0.0 mm 0.01 in0.3 mm
06:45 PM 77.9°F25.5°C 57.2°F14.0°C 49% 15.7 mph N25.3 kmh N 17.9 mph28.8 kmh 30.15 in1021.0 mb 0.00 in0.0 mm 0.00 in0.0 mm 0.01 in0.3 mm
06:40 PM 78.1°F25.6°C 57.4°F14.1°C 49% 5.8 mph N9.3 kmh N 9.0 mph14.5 kmh 30.15 in1021.0 mb 0.00 in0.0 mm 0.00 in0.0 mm 0.01 in0.3 mm
06:35 PM 78.4°F25.8°C 57.3°F14.1°C 48% 15.7 mph NNE25.3 kmh NNE 17.9 mph28.8 kmh 30.15 in1021.0 mb 0.00 in0.0 mm 0.00 in0.0 mm 0.01 in0.3 mm
06:30 PM 78.4°F25.8°C 57.3°F14.1°C 48% 5.4 mph NNE8.7 kmh NNE 5.8 mph9.3 kmh 30.15 in1021.0 mb 0.00 in0.0 mm 0.00 in0.0 mm 0.01 in0.3 mm
06:25 PM 78.6°F25.9°C 57.4°F14.1°C 48% 17.9 mph N28.8 kmh N 20.8 mph33.5 kmh 30.15 in1021.0 mb 0.00 in0.0 mm 0.00 in0.0 mm 0.01 in0.3 mm
06:20 PM 78.8°F26.0°C 57.1°F13.9°C 47% 5.8 mph N9.3 kmh N 9.0 mph14.5 kmh 30.15 in1021.0 mb 0.00 in0.0 mm 0.00 in0.0 mm 0.01 in0.3 mm
06:15 PM 78.8°F26.0°C 56.5°F13.6°C 46% 5.4 mph N8.7 kmh N 9.0 mph14.5 kmh 30.15 in1021.0 mb 0.00 in0.0 mm 0.00 in0.0 mm 0.01 in0.3 mm
06:10 PM 78.8°F26.0°C 56.1°F13.4°C 46% 5.6 mph N9.0 kmh N 9.0 mph14.5 kmh 30.15 in1021.0 mb 0.00 in0.0 mm 0.00 in0.0 mm 0.01 in0.3 mm
06:05 PM 78.6°F25.9°C 55.9°F13.3°C 46% 1.8 mph NNE2.9 kmh NNE 2.9 mph4.7 kmh 30.15 in1021.0 mb 0.00 in0.0 mm 0.00 in0.0 mm 0.01 in0.3 mm
06:00 PM 78.6°F25.9°C 56.3°F13.5°C 46% 7.4 mph NNE11.9 kmh NNE 9.0 mph14.5 kmh 30.16 in1021.3 mb 0.00 in0.0 mm 0.00 in0.0 mm 0.01 in0.3 mm
05:55 PM 78.6°F25.9°C 56.9°F13.8°C 47% 2.9 mph NNE4.7 kmh NNE 2.9 mph4.7 kmh 30.15 in1021.0 mb 0.00 in0.0 mm 0.00 in0.0 mm 0.01 in0.3 mm
05:50 PM 78.6°F25.9°C 56.9°F13.8°C 47% 2.0 mph NNE3.2 kmh NNE 2.9 mph4.7 kmh 30.15 in1021.0 mb 0.00 in0.0 mm 0.00 in0.0 mm 0.01 in0.3 mm
05:45 PM 78.6°F25.9°C 56.8°F13.8°C 47% 7.6 mph N12.2 kmh N 12.1 mph19.5 kmh 30.15 in1021.0 mb 0.00 in0.0 mm 0.00 in0.0 mm 0.01 in0.3 mm
05:40 PM 78.6°F25.9°C 56.6°F13.7°C 47% 11.0 mph N17.7 kmh N 17.9 mph28.8 kmh 30.15 in1021.0 mb 0.00 in0.0 mm 0.00 in0.0 mm 0.01 in0.3 mm
05:35 PM 78.6°F25.9°C 55.8°F13.2°C 45% 7.2 mph NNE11.6 kmh NNE 9.0 mph14.5 kmh 30.16 in1021.3 mb 0.00 in0.0 mm 0.00 in0.0 mm 0.01 in0.3 mm
05:30 PM 78.6°F25.9°C 55.2°F12.9°C 45% 7.6 mph N12.2 kmh N 12.1 mph19.5 kmh 30.16 in1021.3 mb 0.00 in0.0 mm 0.00 in0.0 mm 0.01 in0.3 mm
05:25 PM 78.4°F25.8°C 55.0°F12.8°C 44% 5.4 mph N8.7 kmh N 9.0 mph14.5 kmh 30.16 in1021.3 mb 0.00 in0.0 mm 0.00 in0.0 mm 0.01 in0.3 mm
05:20 PM 78.4°F25.8°C 54.9°F12.7°C 44% 15.2 mph N24.5 kmh N 17.9 mph28.8 kmh 30.16 in1021.3 mb 0.00 in0.0 mm 0.00 in0.0 mm 0.01 in0.3 mm
05:15 PM 78.4°F25.8°C 54.5°F12.5°C 43% 8.3 mph NNE13.4 kmh NNE 9.0 mph14.5 kmh 30.16 in1021.3 mb 0.00 in0.0 mm 0.00 in0.0 mm 0.01 in0.3 mm
05:10 PM 78.6°F25.9°C 54.2°F12.3°C 42% 10.1 mph NNE16.3 kmh NNE 15.0 mph24.1 kmh 30.16 in1021.3 mb 0.00 in0.0 mm 0.00 in0.0 mm 0.01 in0.3 mm
05:05 PM 79.0°F26.1°C 55.3°F12.9°C 44% 12.3 mph N19.8 kmh N 17.9 mph28.8 kmh 30.15 in1021.0 mb 0.00 in0.0 mm 0.00 in0.0 mm 0.01 in0.3 mm
05:00 PM 79.2°F26.2°C 56.4°F13.6°C 45% 5.6 mph N9.0 kmh N 9.0 mph14.5 kmh 30.16 in1021.3 mb 0.00 in0.0 mm 0.00 in0.0 mm 0.01 in0.3 mm
04:55 PM 79.2°F26.2°C 56.7°F13.7°C 46% 9.6 mph N15.4 kmh N 15.0 mph24.1 kmh 30.15 in1021.0 mb 0.00 in0.0 mm 0.00 in0.0 mm 0.01 in0.3 mm
04:50 PM 79.3°F26.3°C 56.8°F13.8°C 46% 7.2 mph N11.6 kmh N 12.1 mph19.5 kmh 30.15 in1021.0 mb 0.00 in0.0 mm 0.00 in0.0 mm 0.01 in0.3 mm
04:45 PM 79.3°F26.3°C 56.1°F13.4°C 45% 4.7 mph N7.6 kmh N 12.1 mph19.5 kmh 30.15 in1021.0 mb 0.00 in0.0 mm 0.00 in0.0 mm 0.01 in0.3 mm
04:40 PM 79.3°F26.3°C 55.5°F13.1°C 44% 4.5 mph NNE7.2 kmh NNE 5.8 mph9.3 kmh 30.15 in1021.0 mb 0.00 in0.0 mm 0.00 in0.0 mm 0.01 in0.3 mm
04:35 PM 79.2°F26.2°C 55.2°F12.9°C 43% 8.3 mph NNE13.4 kmh NNE 12.1 mph19.5 kmh 30.15 in1021.0 mb 0.00 in0.0 mm 0.00 in0.0 mm 0.01 in0.3 mm
04:30 PM 79.3°F26.3°C 55.4°F13.0°C 43% 6.3 mph NNE10.1 kmh NNE 12.1 mph19.5 kmh 30.15 in1021.0 mb 0.00 in0.0 mm 0.00 in0.0 mm 0.01 in0.3 mm
04:25 PM 79.5°F26.4°C 56.7°F13.7°C 45% 7.2 mph N11.6 kmh N 9.0 mph14.5 kmh 30.15 in1021.0 mb 0.00 in0.0 mm 0.00 in0.0 mm 0.01 in0.3 mm
04:20 PM 79.5°F26.4°C 57.7°F14.3°C 47% 9.4 mph N15.1 kmh N 15.0 mph24.1 kmh 30.15 in1021.0 mb 0.00 in0.0 mm 0.00 in0.0 mm 0.01 in0.3 mm
04:15 PM 79.3°F26.3°C 58.0°F14.4°C 48% 7.4 mph NNE11.9 kmh NNE 12.1 mph19.5 kmh 30.15 in1021.0 mb 0.00 in0.0 mm 0.00 in0.0 mm 0.01 in0.3 mm
04:10 PM 79.2°F26.2°C 58.1°F14.5°C 49% 7.2 mph NNE11.6 kmh NNE 9.0 mph14.5 kmh 30.16 in1021.3 mb 0.00 in0.0 mm 0.00 in0.0 mm 0.01 in0.3 mm
04:05 PM 79.2°F26.2°C 58.1°F14.5°C 49% 11.4 mph N18.3 kmh N 24.2 mph38.9 kmh 30.16 in1021.3 mb 0.00 in0.0 mm 0.00 in0.0 mm 0.01 in0.3 mm
04:00 PM 79.0°F26.1°C 58.2°F14.6°C 49% 11.4 mph N18.3 kmh N 15.0 mph24.1 kmh 30.16 in1021.3 mb 0.00 in0.0 mm 0.00 in0.0 mm 0.01 in0.3 mm
03:55 PM 79.0°F26.1°C 58.2°F14.6°C 49% 4.7 mph N7.6 kmh N 5.8 mph9.3 kmh 30.16 in1021.3 mb 0.00 in0.0 mm 0.00 in0.0 mm 0.01 in0.3 mm
03:50 PM 79.0°F26.1°C 58.4°F14.7°C 49% 13.9 mph NNE22.4 kmh NNE 15.0 mph24.1 kmh 30.16 in1021.3 mb 0.00 in0.0 mm 0.00 in0.0 mm 0.01 in0.3 mm
03:45 PM 78.8°F26.0°C 59.0°F15.0°C 50% 7.4 mph NNE11.9 kmh NNE 9.0 mph14.5 kmh 30.16 in1021.3 mb 0.00 in0.0 mm 0.00 in0.0 mm 0.01 in0.3 mm
03:40 PM 79.0°F26.1°C 59.2°F15.1°C 50% 8.3 mph NNE13.4 kmh NNE 12.1 mph19.5 kmh 30.15 in1021.0 mb 0.00 in0.0 mm 0.00 in0.0 mm 0.01 in0.3 mm
03:35 PM 79.2°F26.2°C 58.8°F14.9°C 50% 3.4 mph NNE5.5 kmh NNE 5.8 mph9.3 kmh 30.15 in1021.0 mb 0.00 in0.0 mm 0.00 in0.0 mm 0.01 in0.3 mm
03:30 PM 79.3°F26.3°C 58.7°F14.8°C 49% 4.0 mph N6.4 kmh N 12.1 mph19.5 kmh 30.15 in1021.0 mb 0.00 in0.0 mm 0.00 in0.0 mm 0.01 in0.3 mm
03:25 PM 79.3°F26.3°C 58.8°F14.9°C 49% 8.5 mph N13.7 kmh N 12.1 mph19.5 kmh 30.16 in1021.3 mb 0.00 in0.0 mm 0.00 in0.0 mm 0.01 in0.3 mm
03:20 PM 79.3°F26.3°C 58.9°F14.9°C 49% 6.3 mph N10.1 kmh N 9.0 mph14.5 kmh 30.16 in1021.3 mb 0.00 in0.0 mm 0.00 in0.0 mm 0.01 in0.3 mm
03:15 PM 79.7°F26.5°C 59.0°F15.0°C 49% 8.5 mph N13.7 kmh N 12.1 mph19.5 kmh 30.16 in1021.3 mb 0.00 in0.0 mm 0.00 in0.0 mm 0.01 in0.3 mm
03:10 PM 79.7°F26.5°C 58.9°F14.9°C 49% 5.4 mph N8.7 kmh N 5.8 mph9.3 kmh 30.16 in1021.3 mb 0.00 in0.0 mm 0.00 in0.0 mm 0.01 in0.3 mm
03:05 PM 79.7°F26.5°C 58.5°F14.7°C 49% 18.3 mph NNE29.5 kmh NNE 24.2 mph38.9 kmh 30.16 in1021.3 mb 0.00 in0.0 mm 0.00 in0.0 mm 0.01 in0.3 mm
03:00 PM 79.5°F26.4°C 58.2°F14.6°C 48% 6.7 mph N10.8 kmh N 9.0 mph14.5 kmh 30.16 in1021.3 mb 0.00 in0.0 mm 0.00 in0.0 mm 0.01 in0.3 mm
02:55 PM 79.3°F26.3°C 58.1°F14.5°C 48% 7.4 mph N11.9 kmh N 9.0 mph14.5 kmh 30.16 in1021.3 mb 0.00 in0.0 mm 0.00 in0.0 mm 0.01 in0.3 mm
02:50 PM 79.2°F26.2°C 58.7°F14.8°C 50% 7.6 mph N12.2 kmh N 9.0 mph14.5 kmh 30.15 in1021.0 mb 0.00 in0.0 mm 0.00 in0.0 mm 0.01 in0.3 mm
02:45 PM 79.0°F26.1°C 59.1°F15.1°C 51% 4.7 mph NNE7.6 kmh NNE 9.0 mph14.5 kmh 30.15 in1021.0 mb 0.00 in0.0 mm 0.00 in0.0 mm 0.01 in0.3 mm
02:40 PM 78.8°F26.0°C 58.9°F14.9°C 51% 3.6 mph NNE5.8 kmh NNE 5.8 mph9.3 kmh 30.15 in1021.0 mb 0.00 in0.0 mm 0.00 in0.0 mm 0.01 in0.3 mm
02:35 PM 78.8°F26.0°C 58.9°F14.9°C 51% 6.7 mph NNE10.8 kmh NNE 9.0 mph14.5 kmh 30.15 in1021.0 mb 0.00 in0.0 mm 0.00 in0.0 mm 0.01 in0.3 mm
02:30 PM 78.8°F26.0°C 58.8°F14.9°C 51% 11.0 mph NNE17.7 kmh NNE 15.0 mph24.1 kmh 30.16 in1021.3 mb 0.00 in0.0 mm 0.00 in0.0 mm 0.01 in0.3 mm
02:25 PM 78.6°F25.9°C 59.5°F15.3°C 52% 9.4 mph NNE15.1 kmh NNE 15.0 mph24.1 kmh 30.16 in1021.3 mb 0.00 in0.0 mm 0.00 in0.0 mm 0.01 in0.3 mm
02:20 PM 78.8°F26.0°C 60.5°F15.8°C 54% 7.4 mph N11.9 kmh N 9.0 mph14.5 kmh 30.16 in1021.3 mb 0.00 in0.0 mm 0.00 in0.0 mm 0.01 in0.3 mm
02:15 PM 79.0°F26.1°C 61.0°F16.1°C 55% 6.3 mph N10.1 kmh N 9.0 mph14.5 kmh 30.16 in1021.3 mb 0.00 in0.0 mm 0.00 in0.0 mm 0.01 in0.3 mm
02:10 PM 79.0°F26.1°C 61.1°F16.2°C 55% 5.8 mph 9.3 kmh 9.0 mph14.5 kmh 30.16 in1021.3 mb 0.00 in0.0 mm 0.00 in0.0 mm 0.01 in0.3 mm
02:05 PM 78.8°F26.0°C 60.3°F15.7°C 53% 6.3 mph N10.1 kmh N 9.0 mph14.5 kmh 30.16 in1021.3 mb 0.00 in0.0 mm 0.00 in0.0 mm 0.01 in0.3 mm
02:00 PM 78.8°F26.0°C 59.2°F15.1°C 51% 9.0 mph 14.5 kmh 9.0 mph14.5 kmh 30.16 in1021.3 mb 0.00 in0.0 mm 0.00 in0.0 mm 0.01 in0.3 mm
01:55 PM 78.8°F26.0°C 58.6°F14.8°C 50% 9.6 mph N15.4 kmh N 15.0 mph24.1 kmh 30.16 in1021.3 mb 0.00 in0.0 mm 0.00 in0.0 mm 0.01 in0.3 mm
01:50 PM 78.6°F25.9°C 58.8°F14.9°C 51% 4.0 mph N6.4 kmh N 5.8 mph9.3 kmh 30.16 in1021.3 mb 0.00 in0.0 mm 0.00 in0.0 mm 0.01 in0.3 mm
01:45 PM 78.6°F25.9°C 59.4°F15.2°C 52% 4.7 mph N7.6 kmh N 5.8 mph9.3 kmh 30.16 in1021.3 mb 0.00 in0.0 mm 0.00 in0.0 mm 0.01 in0.3 mm
01:40 PM 78.6°F25.9°C 60.5°F15.8°C 54% 5.4 mph NNE8.7 kmh NNE 9.0 mph14.5 kmh 30.16 in1021.3 mb 0.00 in0.0 mm 0.00 in0.0 mm 0.01 in0.3 mm
01:35 PM 78.6°F25.9°C 61.3°F16.3°C 56% 9.6 mph NNE15.4 kmh NNE 12.1 mph19.5 kmh 30.16 in1021.3 mb 0.00 in0.0 mm 0.00 in0.0 mm 0.01 in0.3 mm
01:30 PM 78.4°F25.8°C 60.6°F15.9°C 55% 4.5 mph NNE7.2 kmh NNE 5.8 mph9.3 kmh 30.16 in1021.3 mb 0.00 in0.0 mm 0.00 in0.0 mm 0.01 in0.3 mm
01:25 PM 78.1°F25.6°C 59.5°F15.3°C 54% 13.0 mph NNE20.9 kmh NNE 15.0 mph24.1 kmh 30.16 in1021.3 mb 0.00 in0.0 mm 0.00 in0.0 mm 0.01 in0.3 mm
01:20 PM 77.7°F25.4°C 59.2°F15.1°C 54% 12.3 mph NNE19.8 kmh NNE 15.0 mph24.1 kmh 30.16 in1021.3 mb 0.00 in0.0 mm 0.00 in0.0 mm 0.01 in0.3 mm
01:15 PM 77.5°F25.3°C 59.8°F15.4°C 55% 9.6 mph N15.4 kmh N 12.1 mph19.5 kmh 30.16 in1021.3 mb 0.00 in0.0 mm 0.00 in0.0 mm 0.01 in0.3 mm
01:10 PM 77.4°F25.2°C 60.5°F15.8°C 56% 16.8 mph NNE27.0 kmh NNE 20.8 mph33.5 kmh 30.17 in1021.7 mb 0.00 in0.0 mm 0.00 in0.0 mm 0.01 in0.3 mm
01:05 PM 77.4°F25.2°C 61.6°F16.4°C 58% 12.3 mph NNE19.8 kmh NNE 17.9 mph28.8 kmh 30.17 in1021.7 mb 0.00 in0.0 mm 0.00 in0.0 mm 0.01 in0.3 mm
01:00 PM 77.7°F25.4°C 62.1°F16.7°C 58% 6.7 mph N10.8 kmh N 9.0 mph14.5 kmh 30.17 in1021.7 mb 0.00 in0.0 mm 0.00 in0.0 mm 0.01 in0.3 mm
12:55 PM 77.9°F25.5°C 61.7°F16.5°C 58% 7.6 mph N12.2 kmh N 12.1 mph19.5 kmh 30.17 in1021.7 mb 0.00 in0.0 mm 0.00 in0.0 mm 0.01 in0.3 mm
12:50 PM 77.9°F25.5°C 61.3°F16.3°C 58% 15.2 mph N24.5 kmh N 17.9 mph28.8 kmh 30.17 in1021.7 mb 0.00 in0.0 mm 0.00 in0.0 mm 0.01 in0.3 mm
12:45 PM 77.7°F25.4°C 61.2°F16.2°C 58% Calm Calm -- 30.17 in1021.7 mb 0.00 in0.0 mm 0.00 in0.0 mm 0.01 in0.3 mm
12:40 PM 77.5°F25.3°C 60.9°F16.1°C 58% 12.3 mph NNE19.8 kmh NNE 15.0 mph24.1 kmh 30.17 in1021.7 mb 0.00 in0.0 mm 0.00 in0.0 mm 0.01 in0.3 mm
12:35 PM 77.2°F25.1°C 60.7°F15.9°C 58% 2.0 mph NNE3.2 kmh NNE 2.9 mph4.7 kmh 30.17 in1021.7 mb 0.00 in0.0 mm 0.00 in0.0 mm 0.01 in0.3 mm
12:30 PM 77.0°F25.0°C 60.9°F16.1°C 58% 6.3 mph NNE10.1 kmh NNE 9.0 mph14.5 kmh 30.17 in1021.7 mb 0.00 in0.0 mm 0.00 in0.0 mm 0.01 in0.3 mm
12:25 PM 76.8°F24.9°C 61.3°F16.3°C 58% 10.1 mph NNE16.3 kmh NNE 15.0 mph24.1 kmh 30.17 in1021.7 mb 0.00 in0.0 mm 0.00 in0.0 mm 0.01 in0.3 mm
12:20 PM 76.8°F24.9°C 61.5°F16.4°C 59% 7.4 mph N11.9 kmh N 9.0 mph14.5 kmh 30.17 in1021.7 mb 0.00 in0.0 mm 0.00 in0.0 mm 0.01 in0.3 mm
12:15 PM 76.8°F24.9°C 61.8°F16.6°C 59% 7.2 mph N11.6 kmh N 9.0 mph14.5 kmh 30.17 in1021.7 mb 0.00 in0.0 mm 0.00 in0.0 mm 0.01 in0.3 mm
12:10 PM 76.8°F24.9°C 61.8°F16.6°C 59% 4.7 mph N7.6 kmh N 9.0 mph14.5 kmh 30.17 in1021.7 mb 0.00 in0.0 mm 0.00 in0.0 mm 0.01 in0.3 mm
12:05 PM 77.0°F25.0°C 61.5°F16.4°C 59% 8.3 mph N13.4 kmh N 12.1 mph19.5 kmh 30.17 in1021.7 mb 0.00 in0.0 mm 0.00 in0.0 mm 0.01 in0.3 mm
12:00 PM 77.0°F25.0°C 61.2°F16.2°C 58% 5.4 mph NNE8.7 kmh NNE 9.0 mph14.5 kmh 30.17 in1021.7 mb 0.00 in0.0 mm 0.00 in0.0 mm 0.01 in0.3 mm
11:55 AM 76.8°F24.9°C 61.3°F16.3°C 59% 10.1 mph NNE16.3 kmh NNE 12.1 mph19.5 kmh 30.17 in1021.7 mb 0.00 in0.0 mm 0.00 in0.0 mm 0.01 in0.3 mm
11:50 AM 76.8°F24.9°C 61.4°F16.3°C 59% 11.0 mph NNE17.7 kmh NNE 15.0 mph24.1 kmh 30.17 in1021.7 mb 0.00 in0.0 mm 0.00 in0.0 mm 0.01 in0.3 mm
11:45 AM 76.6°F24.8°C 61.4°F16.3°C 59% 5.8 mph NE9.3 kmh NE 9.0 mph14.5 kmh 30.17 in1021.7 mb 0.00 in0.0 mm 0.00 in0.0 mm 0.01 in0.3 mm
11:40 AM 76.6°F24.8°C 61.1°F16.2°C 59% 13.4 mph NE21.6 kmh NE 15.0 mph24.1 kmh 30.17 in1021.7 mb 0.00 in0.0 mm 0.00 in0.0 mm 0.01 in0.3 mm
11:35 AM 76.6°F24.8°C 61.1°F16.2°C 59% 10.3 mph NE16.6 kmh NE 15.0 mph24.1 kmh 30.17 in1021.7 mb 0.00 in0.0 mm 0.00 in0.0 mm 0.01 in0.3 mm
11:30 AM 76.5°F24.7°C 61.3°F16.3°C 59% 4.5 mph NNE7.2 kmh NNE 5.8 mph9.3 kmh 30.17 in1021.7 mb 0.00 in0.0 mm 0.00 in0.0 mm 0.01 in0.3 mm
11:25 AM 76.5°F24.7°C 61.3°F16.3°C 59% 5.8 mph NNE9.3 kmh NNE 5.8 mph9.3 kmh 30.17 in1021.7 mb 0.00 in0.0 mm 0.00 in0.0 mm 0.01 in0.3 mm
11:20 AM 76.5°F24.7°C 61.5°F16.4°C 59% 12.3 mph NNE19.8 kmh NNE 15.0 mph24.1 kmh 30.17 in1021.7 mb 0.00 in0.0 mm 0.00 in0.0 mm 0.01 in0.3 mm
11:15 AM 76.5°F24.7°C 61.6°F16.4°C 60% 9.0 mph N14.5 kmh N 12.1 mph19.5 kmh 30.17 in1021.7 mb 0.00 in0.0 mm 0.00 in0.0 mm 0.01 in0.3 mm
11:10 AM 76.5°F24.7°C 61.8°F16.6°C 60% 11.4 mph N18.3 kmh N 17.9 mph28.8 kmh 30.16 in1021.3 mb 0.00 in0.0 mm 0.00 in0.0 mm 0.01 in0.3 mm
11:05 AM 76.3°F24.6°C 62.0°F16.7°C 61% 9.0 mph NNE14.5 kmh NNE 15.0 mph24.1 kmh 30.16 in1021.3 mb 0.00 in0.0 mm 0.00 in0.0 mm 0.01 in0.3 mm
11:00 AM 76.3°F24.6°C 62.1°F16.7°C 62% 6.3 mph N10.1 kmh N 9.0 mph14.5 kmh 30.16 in1021.3 mb 0.00 in0.0 mm 0.00 in0.0 mm 0.01 in0.3 mm
10:55 AM 76.1°F24.5°C 62.0°F16.7°C 62% 6.7 mph N10.8 kmh N 12.1 mph19.5 kmh 30.16 in1021.3 mb 0.00 in0.0 mm 0.00 in0.0 mm 0.01 in0.3 mm
10:50 AM 76.1°F24.5°C 61.8°F16.6°C 62% 5.4 mph N8.7 kmh N 9.0 mph14.5 kmh 30.16 in1021.3 mb 0.00 in0.0 mm 0.00 in0.0 mm 0.01 in0.3 mm
10:45 AM 75.9°F24.4°C 62.0°F16.7°C 62% 3.6 mph N5.8 kmh N 5.8 mph9.3 kmh 30.16 in1021.3 mb 0.00 in0.0 mm 0.00 in0.0 mm 0.01 in0.3 mm
10:40 AM 75.7°F24.3°C 61.9°F16.6°C 62% 5.4 mph N8.7 kmh N 5.8 mph9.3 kmh 30.15 in1021.0 mb 0.00 in0.0 mm 0.00 in0.0 mm 0.01 in0.3 mm
10:35 AM 75.7°F24.3°C 61.9°F16.6°C 62% 9.4 mph NNE15.1 kmh NNE 12.1 mph19.5 kmh 30.15 in1021.0 mb 0.00 in0.0 mm 0.00 in0.0 mm 0.01 in0.3 mm
10:30 AM 75.6°F24.2°C 61.8°F16.6°C 63% 7.4 mph NNE11.9 kmh NNE 9.0 mph14.5 kmh 30.16 in1021.3 mb 0.00 in0.0 mm 0.00 in0.0 mm 0.01 in0.3 mm
10:25 AM 75.4°F24.1°C 61.6°F16.4°C 63% 12.8 mph N20.6 kmh N 15.0 mph24.1 kmh 30.16 in1021.3 mb 0.00 in0.0 mm 0.00 in0.0 mm 0.01 in0.3 mm
10:20 AM 75.2°F24.0°C 61.6°F16.4°C 63% 7.6 mph N12.2 kmh N 15.0 mph24.1 kmh 30.16 in1021.3 mb 0.00 in0.0 mm 0.00 in0.0 mm 0.01 in0.3 mm
10:15 AM 75.0°F23.9°C 61.5°F16.4°C 63% 5.8 mph N9.3 kmh N 9.0 mph14.5 kmh 30.16 in1021.3 mb 0.00 in0.0 mm 0.00 in0.0 mm 0.01 in0.3 mm
10:10 AM 74.7°F23.7°C 61.3°F16.3°C 64% 9.4 mph NNE15.1 kmh NNE 12.1 mph19.5 kmh 30.16 in1021.3 mb 0.00 in0.0 mm 0.00 in0.0 mm 0.01 in0.3 mm
10:05 AM 74.5°F23.6°C 61.4°F16.3°C 65% 3.6 mph NE5.8 kmh NE 5.8 mph9.3 kmh 30.15 in1021.0 mb 0.00 in0.0 mm 0.00 in0.0 mm 0.01 in0.3 mm
10:00 AM 74.1°F23.4°C 61.2°F16.2°C 65% 9.0 mph NE14.5 kmh NE 9.0 mph14.5 kmh 30.16 in1021.3 mb 0.00 in0.0 mm 0.00 in0.0 mm 0.01 in0.3 mm
09:55 AM 73.8°F23.2°C 60.9°F16.1°C 64% 3.4 mph NNE5.5 kmh NNE 9.0 mph14.5 kmh 30.16 in1021.3 mb 0.00 in0.0 mm 0.00 in0.0 mm 0.01 in0.3 mm
09:50 AM 73.6°F23.1°C 60.7°F15.9°C 65% 7.2 mph NNE11.6 kmh NNE 9.0 mph14.5 kmh 30.16 in1021.3 mb 0.00 in0.0 mm 0.00 in0.0 mm 0.01 in0.3 mm
09:45 AM 73.4°F23.0°C 60.9°F16.1°C 65% 5.6 mph N9.0 kmh N 5.8 mph9.3 kmh 30.16 in1021.3 mb 0.00 in0.0 mm 0.00 in0.0 mm 0.01 in0.3 mm
09:40 AM 73.2°F22.9°C 61.2°F16.2°C 67% 10.3 mph NNE16.6 kmh NNE 12.1 mph19.5 kmh 30.16 in1021.3 mb 0.00 in0.0 mm 0.00 in0.0 mm 0.01 in0.3 mm
09:35 AM 73.0°F22.8°C 61.2°F16.2°C 67% 1.8 mph NNE2.9 kmh NNE 2.9 mph4.7 kmh 30.15 in1021.0 mb 0.00 in0.0 mm 0.00 in0.0 mm 0.01 in0.3 mm
09:30 AM 73.0°F22.8°C 61.4°F16.3°C 68% 6.7 mph NNE10.8 kmh NNE 9.0 mph14.5 kmh 30.15 in1021.0 mb 0.00 in0.0 mm 0.00 in0.0 mm 0.01 in0.3 mm
09:25 AM 72.9°F22.7°C 61.6°F16.4°C 69% 5.4 mph N8.7 kmh N 5.8 mph9.3 kmh 30.15 in1021.0 mb 0.00 in0.0 mm 0.00 in0.0 mm 0.01 in0.3 mm
09:20 AM 72.7°F22.6°C 61.5°F16.4°C 69% 4.5 mph N7.2 kmh N 5.8 mph9.3 kmh 30.15 in1021.0 mb 0.00 in0.0 mm 0.00 in0.0 mm 0.01 in0.3 mm
09:15 AM 72.5°F22.5°C 61.3°F16.3°C 69% 8.5 mph NNE13.7 kmh NNE 12.1 mph19.5 kmh 30.15 in1021.0 mb 0.00 in0.0 mm 0.00 in0.0 mm 0.01 in0.3 mm
09:10 AM 72.1°F22.3°C 61.2°F16.2°C 69% 2.7 mph NE4.3 kmh NE 2.9 mph4.7 kmh 30.15 in1021.0 mb 0.00 in0.0 mm 0.00 in0.0 mm 0.01 in0.3 mm
09:05 AM 72.0°F22.2°C 61.1°F16.2°C 69% 2.9 mph NE4.7 kmh NE 5.8 mph9.3 kmh 30.15 in1021.0 mb 0.00 in0.0 mm 0.00 in0.0 mm 0.01 in0.3 mm
09:00 AM 71.8°F22.1°C 60.8°F16.0°C 69% 8.3 mph NNE13.4 kmh NNE 9.0 mph14.5 kmh 30.15 in1021.0 mb 0.00 in0.0 mm 0.00 in0.0 mm 0.01 in0.3 mm
08:55 AM 71.6°F22.0°C 60.7°F15.9°C 69% 6.3 mph NNE10.1 kmh NNE 9.0 mph14.5 kmh 30.14 in1020.7 mb 0.00 in0.0 mm 0.00 in0.0 mm 0.01 in0.3 mm
08:50 AM 71.4°F21.9°C 60.4°F15.8°C 69% 6.3 mph NNE10.1 kmh NNE 9.0 mph14.5 kmh 30.14 in1020.7 mb 0.00 in0.0 mm 0.00 in0.0 mm 0.01 in0.3 mm
08:45 AM 71.4°F21.9°C 60.6°F15.9°C 69% 7.4 mph NNE11.9 kmh NNE 9.0 mph14.5 kmh 30.15 in1021.0 mb 0.00 in0.0 mm 0.00 in0.0 mm 0.01 in0.3 mm
08:40 AM 71.2°F21.8°C 60.8°F16.0°C 70% 11.2 mph NNE18.0 kmh NNE 15.0 mph24.1 kmh 30.14 in1020.7 mb 0.00 in0.0 mm 0.00 in0.0 mm 0.01 in0.3 mm
08:35 AM 71.1°F21.7°C 60.7°F15.9°C 70% 5.8 mph N9.3 kmh N 9.0 mph14.5 kmh 30.14 in1020.7 mb 0.00 in0.0 mm 0.00 in0.0 mm 0.01 in0.3 mm
08:30 AM 70.9°F21.6°C 60.7°F15.9°C 70% 6.3 mph NNE10.1 kmh NNE 9.0 mph14.5 kmh 30.14 in1020.7 mb 0.00 in0.0 mm 0.00 in0.0 mm 0.01 in0.3 mm
08:25 AM 70.7°F21.5°C 60.8°F16.0°C 71% 6.7 mph NNE10.8 kmh NNE 9.0 mph14.5 kmh 30.13 in1020.3 mb 0.00 in0.0 mm 0.00 in0.0 mm 0.01 in0.3 mm
08:20 AM 70.5°F21.4°C 61.0°F16.1°C 72% 9.6 mph N15.4 kmh N 15.0 mph24.1 kmh 30.13 in1020.3 mb 0.00 in0.0 mm 0.00 in0.0 mm 0.01 in0.3 mm
08:15 AM 70.3°F21.3°C 61.2°F16.2°C 73% 10.3 mph N16.6 kmh N 12.1 mph19.5 kmh 30.13 in1020.3 mb 0.00 in0.0 mm 0.00 in0.0 mm 0.01 in0.3 mm
08:10 AM 70.2°F21.2°C 61.5°F16.4°C 74% 2.9 mph NNE4.7 kmh NNE 5.8 mph9.3 kmh 30.12 in1020.0 mb 0.00 in0.0 mm 0.00 in0.0 mm 0.01 in0.3 mm
08:05 AM 70.0°F21.1°C 61.7°F16.5°C 76% 16.1 mph NNE25.9 kmh NNE 24.2 mph38.9 kmh 30.12 in1020.0 mb 0.00 in0.0 mm 0.00 in0.0 mm 0.01 in0.3 mm
08:00 AM 69.8°F21.0°C 61.9°F16.6°C 77% 11.0 mph NNE17.7 kmh NNE 15.0 mph24.1 kmh 30.12 in1020.0 mb 0.00 in0.0 mm 0.00 in0.0 mm 0.01 in0.3 mm
07:55 AM 69.8°F21.0°C 61.9°F16.6°C 77% 1.8 mph N2.9 kmh N 2.9 mph4.7 kmh 30.12 in1020.0 mb 0.00 in0.0 mm 0.00 in0.0 mm 0.01 in0.3 mm
07:50 AM 69.6°F20.9°C 62.0°F16.7°C 77% 9.6 mph N15.4 kmh N 15.0 mph24.1 kmh 30.12 in1020.0 mb 0.00 in0.0 mm 0.00 in0.0 mm 0.01 in0.3 mm
07:45 AM 69.4°F20.8°C 62.0°F16.7°C 78% 4.0 mph N6.4 kmh N 5.8 mph9.3 kmh 30.12 in1020.0 mb 0.00 in0.0 mm 0.00 in0.0 mm 0.01 in0.3 mm
07:40 AM 69.3°F20.7°C 62.0°F16.7°C 78% 7.4 mph N11.9 kmh N 9.0 mph14.5 kmh 30.12 in1020.0 mb 0.00 in0.0 mm 0.00 in0.0 mm 0.01 in0.3 mm
07:35 AM 68.9°F20.5°C 62.0°F16.7°C 80% 3.4 mph NNE5.5 kmh NNE 5.8 mph9.3 kmh 30.11 in1019.6 mb 0.00 in0.0 mm 0.00 in0.0 mm 0.01 in0.3 mm
07:30 AM 68.5°F20.3°C 62.1°F16.7°C 81% 6.7 mph N10.8 kmh N 9.0 mph14.5 kmh 30.11 in1019.6 mb 0.00 in0.0 mm 0.00 in0.0 mm 0.01 in0.3 mm
07:25 AM 68.2°F20.1°C 62.2°F16.8°C 83% 8.3 mph N13.4 kmh N 12.1 mph19.5 kmh 30.11 in1019.6 mb 0.00 in0.0 mm 0.00 in0.0 mm 0.01 in0.3 mm
07:20 AM 67.8°F19.9°C 62.4°F16.9°C 84% 11.0 mph N17.7 kmh N 17.9 mph28.8 kmh 30.11 in1019.6 mb 0.00 in0.0 mm 0.00 in0.0 mm 0.01 in0.3 mm
07:15 AM 67.5°F19.7°C 62.6°F17.0°C 85% 2.7 mph N4.3 kmh N 5.8 mph9.3 kmh 30.11 in1019.6 mb 0.00 in0.0 mm 0.00 in0.0 mm 0.01 in0.3 mm
07:10 AM 67.3°F19.6°C 62.9°F17.2°C 86% 6.7 mph NNE10.8 kmh NNE 9.0 mph14.5 kmh 30.11 in1019.6 mb 0.00 in0.0 mm 0.00 in0.0 mm 0.01 in0.3 mm
07:05 AM 67.1°F19.5°C 63.1°F17.3°C 87% 5.4 mph NNE8.7 kmh NNE 5.8 mph9.3 kmh 30.11 in1019.6 mb 0.00 in0.0 mm 0.00 in0.0 mm 0.01 in0.3 mm
07:00 AM 67.1°F19.5°C 63.3°F17.4°C 88% 4.7 mph NNE7.6 kmh NNE 5.8 mph9.3 kmh 30.10 in1019.3 mb 0.00 in0.0 mm 0.00 in0.0 mm 0.01 in0.3 mm
06:55 AM 66.9°F19.4°C 63.5°F17.5°C 89% 4.7 mph NNE7.6 kmh NNE 5.8 mph9.3 kmh 30.10 in1019.3 mb 0.00 in0.0 mm 0.00 in0.0 mm 0.01 in0.3 mm
06:50 AM 66.9°F19.4°C 63.9°F17.7°C 90% 2.9 mph N4.7 kmh N 5.8 mph9.3 kmh 30.10 in1019.3 mb 0.00 in0.0 mm 0.00 in0.0 mm 0.01 in0.3 mm
06:45 AM 66.9°F19.4°C 64.4°F18.0°C 91% 6.3 mph N10.1 kmh N 9.0 mph14.5 kmh 30.10 in1019.3 mb 0.00 in0.0 mm 0.00 in0.0 mm 0.01 in0.3 mm
06:40 AM 67.1°F19.5°C 64.9°F18.3°C 92% 2.7 mph N4.3 kmh N 5.8 mph9.3 kmh 30.10 in1019.3 mb 0.00 in0.0 mm 0.00 in0.0 mm 0.01 in0.3 mm
06:35 AM 67.5°F19.7°C 65.3°F18.5°C 92% 4.7 mph NNE7.6 kmh NNE 5.8 mph9.3 kmh 30.10 in1019.3 mb 0.00 in0.0 mm 0.00 in0.0 mm 0.01 in0.3 mm
06:30 AM 67.8°F19.9°C 65.7°F18.7°C 92% 2.0 mph NNE3.2 kmh NNE 2.9 mph4.7 kmh 30.10 in1019.3 mb 0.00 in0.0 mm 0.00 in0.0 mm 0.01 in0.3 mm
06:25 AM 68.0°F20.0°C 66.0°F18.9°C 92% 1.8 mph N2.9 kmh N 5.8 mph9.3 kmh 30.10 in1019.3 mb 0.00 in0.0 mm 0.00 in0.0 mm 0.01 in0.3 mm
06:20 AM 68.4°F20.2°C 66.1°F18.9°C 91% 2.0 mph N3.2 kmh N 2.9 mph4.7 kmh 30.09 in1019.0 mb 0.00 in0.0 mm 0.00 in0.0 mm 0.01 in0.3 mm
06:15 AM 68.7°F20.4°C 66.1°F18.9°C 91% 3.4 mph N5.5 kmh N 5.8 mph9.3 kmh 30.09 in1019.0 mb 0.00 in0.0 mm 0.00 in0.0 mm 0.01 in0.3 mm
06:10 AM 68.9°F20.5°C 66.0°F18.9°C 90% 4.5 mph N7.2 kmh N 5.8 mph9.3 kmh 30.09 in1019.0 mb 0.00 in0.0 mm 0.00 in0.0 mm 0.01 in0.3 mm
06:05 AM 69.1°F20.6°C 65.7°F18.7°C 89% 2.0 mph N3.2 kmh N 2.9 mph4.7 kmh 30.09 in1019.0 mb 0.00 in0.0 mm 0.00 in0.0 mm 0.01 in0.3 mm
06:00 AM 69.1°F20.6°C 65.6°F18.7°C 89% 3.6 mph N5.8 kmh N 5.8 mph9.3 kmh 30.09 in1019.0 mb 0.00 in0.0 mm 0.00 in0.0 mm 0.01 in0.3 mm
05:55 AM 69.1°F20.6°C 65.7°F18.7°C 89% 4.5 mph N7.2 kmh N 5.8 mph9.3 kmh 30.08 in1018.6 mb 0.00 in0.0 mm 0.00 in0.0 mm 0.01 in0.3 mm
05:50 AM 69.1°F20.6°C 65.8°F18.8°C 89% 5.8 mph N9.3 kmh N 9.0 mph14.5 kmh 30.08 in1018.6 mb 0.00 in0.0 mm 0.00 in0.0 mm 0.01 in0.3 mm
05:45 AM 69.3°F20.7°C 66.0°F18.9°C 90% 2.0 mph N3.2 kmh N 2.9 mph4.7 kmh 30.08 in1018.6 mb 0.00 in0.0 mm 0.00 in0.0 mm 0.01 in0.3 mm
05:40 AM 69.3°F20.7°C 66.1°F18.9°C 90% 7.4 mph N11.9 kmh N 9.0 mph14.5 kmh 30.07 in1018.3 mb 0.00 in0.0 mm 0.00 in0.0 mm 0.01 in0.3 mm
05:35 AM 69.3°F20.7°C 66.3°F19.1°C 90% 7.6 mph N12.2 kmh N 12.1 mph19.5 kmh 30.07 in1018.3 mb 0.00 in0.0 mm 0.00 in0.0 mm 0.01 in0.3 mm
05:30 AM 69.3°F20.7°C 66.5°F19.2°C 90% 8.5 mph N13.7 kmh N 9.0 mph14.5 kmh 30.07 in1018.3 mb 0.00 in0.0 mm 0.00 in0.0 mm 0.01 in0.3 mm
05:25 AM 69.4°F20.8°C 66.5°F19.2°C 90% 2.0 mph N3.2 kmh N 2.9 mph4.7 kmh 30.07 in1018.3 mb 0.00 in0.0 mm 0.00 in0.0 mm 0.01 in0.3 mm
05:20 AM 69.4°F20.8°C 66.6°F19.2°C 90% 5.6 mph N9.0 kmh N 5.8 mph9.3 kmh 30.07 in1018.3 mb 0.00 in0.0 mm 0.00 in0.0 mm 0.01 in0.3 mm
05:15 AM 69.6°F20.9°C 66.7°F19.3°C 90% 0.2 mph N0.3 kmh N 2.9 mph4.7 kmh 30.07 in1018.3 mb 0.00 in0.0 mm 0.00 in0.0 mm 0.01 in0.3 mm
05:10 AM 69.6°F20.9°C 66.7°F19.3°C 90% 5.4 mph NNE8.7 kmh NNE 9.0 mph14.5 kmh 30.07 in1018.3 mb 0.00 in0.0 mm 0.00 in0.0 mm 0.01 in0.3 mm
05:05 AM 69.6°F20.9°C 66.7°F19.3°C 90% 3.4 mph N5.5 kmh N 5.8 mph9.3 kmh 30.07 in1018.3 mb 0.00 in0.0 mm 0.00 in0.0 mm 0.01 in0.3 mm
05:00 AM 69.8°F21.0°C 66.9°F19.4°C 90% 6.3 mph N10.1 kmh N 9.0 mph14.5 kmh 30.07 in1018.3 mb 0.00 in0.0 mm 0.00 in0.0 mm 0.01 in0.3 mm
04:55 AM 69.8°F21.0°C 67.2°F19.6°C 91% 2.0 mph N3.2 kmh N 2.9 mph4.7 kmh 30.07 in1018.3 mb 0.00 in0.0 mm 0.00 in0.0 mm 0.01 in0.3 mm
04:50 AM 69.8°F21.0°C 67.5°F19.7°C 92% 3.6 mph N5.8 kmh N 5.8 mph9.3 kmh 30.07 in1018.3 mb 0.00 in0.0 mm 0.00 in0.0 mm 0.01 in0.3 mm
04:45 AM 70.0°F21.1°C 67.6°F19.8°C 92% 1.6 mph N2.6 kmh N 2.9 mph4.7 kmh 30.07 in1018.3 mb 0.00 in0.0 mm 0.00 in0.0 mm 0.01 in0.3 mm
04:40 AM 70.0°F21.1°C 67.6°F19.8°C 92% 1.6 mph N2.6 kmh N 2.9 mph4.7 kmh 30.07 in1018.3 mb 0.00 in0.0 mm 0.00 in0.0 mm 0.01 in0.3 mm
04:35 AM 70.0°F21.1°C 67.7°F19.8°C 92% 8.5 mph NNE13.7 kmh NNE 12.1 mph19.5 kmh 30.06 in1017.9 mb 0.00 in0.0 mm 0.00 in0.0 mm 0.01 in0.3 mm
04:30 AM 70.0°F21.1°C 67.9°F19.9°C 93% 0.7 mph NNE1.1 kmh NNE 2.9 mph4.7 kmh 30.06 in1017.9 mb 0.00 in0.0 mm 0.00 in0.0 mm 0.01 in0.3 mm
04:25 AM 70.2°F21.2°C 68.1°F20.1°C 93% 2.7 mph NNE4.3 kmh NNE 2.9 mph4.7 kmh 30.06 in1017.9 mb 0.00 in0.0 mm 0.00 in0.0 mm 0.01 in0.3 mm
04:20 AM 70.2°F21.2°C 68.3°F20.2°C 94% 2.0 mph NNE3.2 kmh NNE 5.8 mph9.3 kmh 30.06 in1017.9 mb 0.00 in0.0 mm 0.00 in0.0 mm 0.01 in0.3 mm
04:15 AM 70.2°F21.2°C 68.4°F20.2°C 94% 5.4 mph NNE8.7 kmh NNE 9.0 mph14.5 kmh 30.06 in1017.9 mb 0.00 in0.0 mm 0.00 in0.0 mm 0.01 in0.3 mm
04:10 AM 70.3°F21.3°C 68.4°F20.2°C 94% 10.1 mph NNE16.3 kmh NNE 15.0 mph24.1 kmh 30.06 in1017.9 mb 0.00 in0.0 mm 0.00 in0.0 mm 0.01 in0.3 mm
04:05 AM 70.3°F21.3°C 68.5°F20.3°C 94% 4.5 mph NNE7.2 kmh NNE 9.0 mph14.5 kmh 30.05 in1017.6 mb 0.00 in0.0 mm 0.00 in0.0 mm 0.01 in0.3 mm
04:00 AM 70.5°F21.4°C 68.7°F20.4°C 94% 5.8 mph N9.3 kmh N 9.0 mph14.5 kmh 30.05 in1017.6 mb 0.00 in0.0 mm 0.00 in0.0 mm 0.01 in0.3 mm
03:55 AM 70.5°F21.4°C 68.8°F20.4°C 94% 7.4 mph N11.9 kmh N 9.0 mph14.5 kmh 30.05 in1017.6 mb 0.00 in0.0 mm 0.00 in0.0 mm 0.01 in0.3 mm
03:50 AM 70.7°F21.5°C 68.9°F20.5°C 94% 5.6 mph NNE9.0 kmh NNE 5.8 mph9.3 kmh 30.04 in1017.3 mb 0.00 in0.0 mm 0.00 in0.0 mm 0.01 in0.3 mm
03:45 AM 70.9°F21.6°C 68.8°F20.4°C 93% 2.9 mph NNE4.7 kmh NNE 5.8 mph9.3 kmh 30.04 in1017.3 mb 0.00 in0.0 mm 0.00 in0.0 mm 0.01 in0.3 mm
03:40 AM 70.9°F21.6°C 68.8°F20.4°C 93% 5.8 mph NNE9.3 kmh NNE 9.0 mph14.5 kmh 30.05 in1017.6 mb 0.00 in0.0 mm 0.00 in0.0 mm 0.01 in0.3 mm
03:35 AM 70.9°F21.6°C 68.9°F20.5°C 93% 6.3 mph NNE10.1 kmh NNE 9.0 mph14.5 kmh 30.05 in1017.6 mb 0.00 in0.0 mm 0.00 in0.0 mm 0.01 in0.3 mm
03:30 AM 71.1°F21.7°C 69.0°F20.6°C 94% 4.7 mph NNE7.6 kmh NNE 5.8 mph9.3 kmh 30.05 in1017.6 mb 0.00 in0.0 mm 0.00 in0.0 mm 0.01 in0.3 mm
03:25 AM 71.1°F21.7°C 69.2°F20.7°C 94% 8.5 mph NNE13.7 kmh NNE 9.0 mph14.5 kmh 30.04 in1017.3 mb 0.00 in0.0 mm 0.00 in0.0 mm 0.01 in0.3 mm
03:20 AM 71.1°F21.7°C 69.3°F20.7°C 94% 4.7 mph N7.6 kmh N 5.8 mph9.3 kmh 30.04 in1017.3 mb 0.00 in0.0 mm 0.00 in0.0 mm 0.01 in0.3 mm
03:15 AM 71.2°F21.8°C 69.2°F20.7°C 94% 2.7 mph N4.3 kmh N 5.8 mph9.3 kmh 30.04 in1017.3 mb 0.00 in0.0 mm 0.00 in0.0 mm 0.01 in0.3 mm
03:10 AM 71.2°F21.8°C 69.2°F20.7°C 93% 8.5 mph NNE13.7 kmh NNE 12.1 mph19.5 kmh 30.04 in1017.3 mb 0.00 in0.0 mm 0.00 in0.0 mm 0.01 in0.3 mm
03:05 AM 71.4°F21.9°C 69.2°F20.7°C 93% 5.6 mph NNE9.0 kmh NNE 9.0 mph14.5 kmh 30.04 in1017.3 mb 0.00 in0.0 mm 0.00 in0.0 mm 0.01 in0.3 mm
03:00 AM 71.4°F21.9°C 69.1°F20.6°C 92% 5.8 mph N9.3 kmh N 9.0 mph14.5 kmh 30.04 in1017.3 mb 0.00 in0.0 mm 0.00 in0.0 mm 0.01 in0.3 mm
02:55 AM 71.4°F21.9°C 69.0°F20.6°C 92% 9.0 mph NNE14.5 kmh NNE 12.1 mph19.5 kmh 30.04 in1017.3 mb 0.00 in0.0 mm 0.00 in0.0 mm 0.01 in0.3 mm
02:50 AM 71.4°F21.9°C 69.1°F20.6°C 92% 6.3 mph NNE10.1 kmh NNE 9.0 mph14.5 kmh 30.04 in1017.3 mb 0.00 in0.0 mm 0.00 in0.0 mm 0.01 in0.3 mm
02:45 AM 71.6°F22.0°C 69.3°F20.7°C 92% 5.4 mph NNE8.7 kmh NNE 5.8 mph9.3 kmh 30.04 in1017.3 mb 0.07 in1.8 mm 0.00 in0.0 mm 0.01 in0.3 mm
02:40 AM 71.6°F22.0°C 69.4°F20.8°C 93% 3.6 mph NNE5.8 kmh NNE 5.8 mph9.3 kmh 30.04 in1017.3 mb 0.07 in1.8 mm 0.84 in21.3 mm 0.01 in0.3 mm
02:35 AM 71.6°F22.0°C 69.5°F20.8°C 93% 9.0 mph NNE14.5 kmh NNE 12.1 mph19.5 kmh 30.04 in1017.3 mb 0.00 in0.0 mm 0.00 in0.0 mm 0.00 in0.0 mm
02:30 AM 71.6°F22.0°C 69.6°F20.9°C 94% 8.5 mph NNE13.7 kmh NNE 12.1 mph19.5 kmh 30.04 in1017.3 mb 0.00 in0.0 mm 0.00 in0.0 mm 0.00 in0.0 mm
02:25 AM 71.6°F22.0°C 69.7°F20.9°C 94% 6.3 mph NNE10.1 kmh NNE 9.0 mph14.5 kmh 30.04 in1017.3 mb 0.00 in0.0 mm 0.00 in0.0 mm 0.00 in0.0 mm
02:20 AM 71.6°F22.0°C 69.8°F21.0°C 95% 12.3 mph NNE19.8 kmh NNE 15.0 mph24.1 kmh 30.04 in1017.3 mb 0.00 in0.0 mm 0.00 in0.0 mm 0.00 in0.0 mm
02:15 AM 71.6°F22.0°C 69.9°F21.1°C 95% 5.6 mph N9.0 kmh N 9.0 mph14.5 kmh 30.04 in1017.3 mb 0.00 in0.0 mm 0.00 in0.0 mm 0.00 in0.0 mm
02:10 AM 71.6°F22.0°C 69.9°F21.1°C 95% 5.6 mph N9.0 kmh N 9.0 mph14.5 kmh 30.04 in1017.3 mb 0.00 in0.0 mm 0.00 in0.0 mm 0.00 in0.0 mm
02:05 AM 71.6°F22.0°C 69.9°F21.1°C 95% 1.6 mph N2.6 kmh N 2.9 mph4.7 kmh 30.04 in1017.3 mb 0.00 in0.0 mm 0.00 in0.0 mm 0.00 in0.0 mm
02:00 AM 71.6°F22.0°C 70.0°F21.1°C 95% 2.0 mph N3.2 kmh N 2.9 mph4.7 kmh 30.04 in1017.3 mb 0.00 in0.0 mm 0.00 in0.0 mm 0.00 in0.0 mm
01:55 AM 71.8°F22.1°C 70.0°F21.1°C 95% 5.8 mph NNE9.3 kmh NNE 9.0 mph14.5 kmh 30.04 in1017.3 mb 0.00 in0.0 mm 0.00 in0.0 mm 0.00 in0.0 mm
01:50 AM 71.6°F22.0°C 69.9°F21.1°C 95% 0.2 mph NNE0.3 kmh NNE 2.9 mph4.7 kmh 30.04 in1017.3 mb 0.00 in0.0 mm 0.00 in0.0 mm 0.00 in0.0 mm
01:45 AM 71.6°F22.0°C 69.9°F21.1°C 95% 9.0 mph NNE14.5 kmh NNE 12.1 mph19.5 kmh 30.04 in1017.3 mb 0.00 in0.0 mm 0.00 in0.0 mm 0.00 in0.0 mm
01:40 AM 71.6°F22.0°C 69.9°F21.1°C 95% 5.4 mph NNE8.7 kmh NNE 5.8 mph9.3 kmh 30.04 in1017.3 mb 0.00 in0.0 mm 0.00 in0.0 mm 0.00 in0.0 mm
01:35 AM 71.6°F22.0°C 69.9°F21.1°C 95% 3.4 mph NE5.5 kmh NE 5.8 mph9.3 kmh 30.04 in1017.3 mb 0.00 in0.0 mm 0.00 in0.0 mm 0.00 in0.0 mm
01:30 AM 71.6°F22.0°C 69.8°F21.0°C 95% 0.2 mph NE0.3 kmh NE 2.9 mph4.7 kmh 30.04 in1017.3 mb 0.00 in0.0 mm 0.00 in0.0 mm 0.00 in0.0 mm
01:25 AM 71.4°F21.9°C 69.7°F20.9°C 95% 3.6 mph NNE5.8 kmh NNE 5.8 mph9.3 kmh 30.04 in1017.3 mb 0.00 in0.0 mm 0.00 in0.0 mm 0.00 in0.0 mm
01:20 AM 71.4°F21.9°C 69.7°F20.9°C 95% 3.6 mph NNE5.8 kmh NNE 5.8 mph9.3 kmh 30.04 in1017.3 mb 0.00 in0.0 mm 0.00 in0.0 mm 0.00 in0.0 mm
01:15 AM 71.4°F21.9°C 69.7°F20.9°C 95% 2.0 mph NNE3.2 kmh NNE 2.9 mph4.7 kmh 30.04 in1017.3 mb 0.00 in0.0 mm 0.00 in0.0 mm 0.00 in0.0 mm
01:10 AM 71.4°F21.9°C 69.7°F20.9°C 95% Calm Calm -- 30.04 in1017.3 mb 0.00 in0.0 mm 0.00 in0.0 mm 0.00 in0.0 mm
01:05 AM 71.4°F21.9°C 69.6°F20.9°C 95% 5.6 mph NNE9.0 kmh NNE 5.8 mph9.3 kmh 30.04 in1017.3 mb 0.00 in0.0 mm 0.00 in0.0 mm 0.00 in0.0 mm
01:00 AM 71.2°F21.8°C 69.5°F20.8°C 95% 2.7 mph NNE4.3 kmh NNE 2.9 mph4.7 kmh 30.04 in1017.3 mb 0.00 in0.0 mm 0.00 in0.0 mm 0.00 in0.0 mm
12:55 AM 71.2°F21.8°C 69.5°F20.8°C 95% 1.8 mph NNE2.9 kmh NNE 2.9 mph4.7 kmh 30.04 in1017.3 mb 0.00 in0.0 mm 0.00 in0.0 mm 0.00 in0.0 mm
12:50 AM 71.2°F21.8°C 69.4°F20.8°C 95% 2.9 mph NE4.7 kmh NE 5.8 mph9.3 kmh 30.04 in1017.3 mb 0.00 in0.0 mm 0.00 in0.0 mm 0.00 in0.0 mm
12:45 AM 71.1°F21.7°C 69.4°F20.8°C 95% 5.6 mph NE9.0 kmh NE 5.8 mph9.3 kmh 30.03 in1016.9 mb 0.00 in0.0 mm 0.00 in0.0 mm 0.00 in0.0 mm
12:40 AM 71.1°F21.7°C 69.4°F20.8°C 95% 3.6 mph NE5.8 kmh NE 5.8 mph9.3 kmh 30.03 in1016.9 mb 0.00 in0.0 mm 0.00 in0.0 mm 0.00 in0.0 mm
12:35 AM 71.1°F21.7°C 69.4°F20.8°C 95% Calm Calm -- 30.03 in1016.9 mb 0.00 in0.0 mm 0.00 in0.0 mm 0.00 in0.0 mm
12:30 AM 71.1°F21.7°C 69.4°F20.8°C 95% 2.9 mph NNE4.7 kmh NNE 5.8 mph9.3 kmh 30.03 in1016.9 mb 0.00 in0.0 mm 0.00 in0.0 mm 0.00 in0.0 mm
12:25 AM 71.1°F21.7°C 69.5°F20.8°C 95% 0.9 mph NNE1.4 kmh NNE 2.9 mph4.7 kmh 30.03 in1016.9 mb 0.00 in0.0 mm 0.00 in0.0 mm 0.00 in0.0 mm
12:20 AM 71.2°F21.8°C 69.5°F20.8°C 95% 0.7 mph NNE1.1 kmh NNE 2.9 mph4.7 kmh 30.03 in1016.9 mb 0.00 in0.0 mm 0.00 in0.0 mm 0.00 in0.0 mm
12:15 AM 71.2°F21.8°C 69.5°F20.8°C 95% 2.7 mph NE4.3 kmh NE 5.8 mph9.3 kmh 30.03 in1016.9 mb 0.00 in0.0 mm 0.00 in0.0 mm 0.00 in0.0 mm
12:10 AM 71.2°F21.8°C 69.4°F20.8°C 95% 7.6 mph NE12.2 kmh NE 9.0 mph14.5 kmh 30.03 in1016.9 mb 0.00 in0.0 mm 0.00 in0.0 mm 0.00 in0.0 mm
12:05 AM 71.2°F21.8°C 69.4°F20.8°C 94% 3.6 mph NNE5.8 kmh NNE 5.8 mph9.3 kmh 30.03 in1016.9 mb 0.00 in0.0 mm 0.00 in0.0 mm 0.00 in0.0 mm
12:00 AM 71.2°F21.8°C 69.5°F20.8°C 94% 5.4 mph NNE8.7 kmh NNE 9.0 mph14.5 kmh 30.03 in1016.9 mb 0.00 in0.0 mm 0.00 in0.0 mm 3.20 in81.3 mm